Time;durP1;ratioP1;P1;durP2;ratioP2;P2;SDS_P1;SDS_P2;PMS_P1;PMS_P2;Temp;Humidity;BMP_temperature;BMP_pressure;BME280_temperature;BME280_humidity;BME280_pressure;Samples;Min_cycle;Max_cycle;Signal;HPM_P1;HPM_P2
2023/01/20 00:01:25;;;;;;;0.85;0.85;;;-4.00;37.40;;;;;;5104644;28;20454;-70
2023/01/20 00:03:54;;;;;;;5.07;0.63;;;-4.10;28.10;;;;;;5089835;28;20437;-70
2023/01/20 00:06:26;;;;;;;0.47;0.47;;;-4.10;21.60;;;;;;5083677;28;20436;-70
2023/01/20 00:08:56;;;;;;;1.77;1.50;;;-4.10;36.40;;;;;;5088402;28;20423;-70
2023/01/20 00:11:25;;;;;;;0.70;0.70;;;-3.80;69.70;;;;;;5068592;28;20437;-71
2023/01/20 00:14:01;;;;;;;1.00;0.82;;;-3.60;82.90;;;;;;5081832;28;20438;-70
2023/01/20 00:16:30;;;;;;;1.92;0.93;;;-3.50;86.00;;;;;;5082223;28;20505;-69
2023/01/20 00:18:57;;;;;;;3.20;1.30;;;-3.50;90.10;;;;;;5096279;28;20873;-69
2023/01/20 00:21:24;;;;;;;0.50;0.50;;;-3.50;90.40;;;;;;5087631;28;20949;-70
2023/01/20 00:23:50;;;;;;;4.90;1.13;;;-3.50;87.60;;;;;;5081011;28;20507;-70
2023/01/20 00:26:20;;;;;;;1.40;0.80;;;-3.60;80.70;;;;;;5089602;28;20473;-69
2023/01/20 00:28:48;;;;;;;0.80;0.70;;;-3.60;78.90;;;;;;5089841;28;20445;-69
2023/01/20 00:31:18;;;;;;;1.60;0.60;;;-3.60;88.30;;;;;;5076315;28;20463;-69
2023/01/20 00:33:50;;;;;;;3.85;0.60;;;-3.50;91.50;;;;;;5093837;28;20448;-69
2023/01/20 00:36:19;;;;;;;0.60;0.60;;;-3.50;92.70;;;;;;5092815;28;20420;-70
2023/01/20 00:38:45;;;;;;;2.50;1.13;;;-3.70;70.50;;;;;;5077968;28;20420;-69
2023/01/20 00:41:12;;;;;;;2.70;1.13;;;-3.80;48.30;;;;;;5094638;28;20416;-70
2023/01/20 00:43:39;;;;;;;0.90;0.70;;;-4.00;33.30;;;;;;5107618;28;20455;-69
2023/01/20 00:46:07;;;;;;;2.20;1.00;;;-4.10;26.40;;;;;;5090977;28;20447;-70
2023/01/20 00:48:34;;;;;;;0.73;0.73;;;-4.10;20.20;;;;;;5096589;28;20535;-70
2023/01/20 00:51:02;;;;;;;0.73;0.73;;;-4.20;4.90;;;;;;5095127;28;21036;-70
2023/01/20 00:53:31;;;;;;;0.80;0.80;;;-4.20;1.00;;;;;;5090056;28;20420;-70
2023/01/20 00:55:57;;;;;;;1.20;0.77;;;-4.00;5.50;;;;;;5083835;28;20422;-70
2023/01/20 00:58:24;;;;;;;2.90;1.33;;;-4.10;1.00;;;;;;5085005;28;20960;-69
2023/01/20 01:00:52;;;;;;;0.53;0.53;;;-4.20;1.00;;;;;;5093974;28;20425;-70
2023/01/20 01:03:19;;;;;;;0.30;0.30;;;-4.30;1.00;;;;;;5091735;28;20507;-70
2023/01/20 01:05:48;;;;;;;0.55;0.55;;;-4.40;1.00;;;;;;5082414;28;20457;-70
2023/01/20 01:08:15;;;;;;;0.40;0.40;;;-4.60;1.00;;;;;;5085400;28;20431;-69
2023/01/20 01:10:42;;;;;;;5.75;1.33;;;-4.70;1.00;;;;;;5094244;28;20459;-70
2023/01/20 01:13:09;;;;;;;0.68;0.68;;;-4.70;1.00;;;;;;5083790;28;20904;-69
2023/01/20 01:15:36;;;;;;;0.85;0.55;;;-4.70;1.00;;;;;;5085039;28;20447;-69
2023/01/20 01:18:05;;;;;;;0.40;0.40;;;-4.60;1.00;;;;;;5074325;28;20430;-69
2023/01/20 01:20:38;;;;;;;4.40;1.50;;;-4.50;1.00;;;;;;5088470;28;20432;-69
2023/01/20 01:23:04;;;;;;;0.60;0.50;;;-4.50;1.00;;;;;;5080505;28;20435;-69
2023/01/20 01:25:31;;;;;;;0.20;0.20;;;-4.60;1.00;;;;;;5083905;28;20444;-70
2023/01/20 01:27:58;;;;;;;1.50;1.30;;;-4.60;1.00;;;;;;5081580;28;20428;-69
2023/01/20 01:30:25;;;;;;;1.17;0.68;;;-4.70;1.00;;;;;;5090474;28;20563;-69
2023/01/20 01:32:51;;;;;;;1.50;0.88;;;-4.70;1.00;;;;;;5090022;28;20833;-69
2023/01/20 01:35:18;;;;;;;1.30;1.13;;;-4.70;1.00;;;;;;5088287;28;20426;-69
2023/01/20 01:37:45;;;;;;;0.45;0.45;;;-4.80;1.00;;;;;;5079541;28;20981;-69
2023/01/20 01:40:12;;;;;;;0.90;0.90;;;-4.80;1.00;;;;;;5089977;28;20433;-69
2023/01/20 01:42:38;;;;;;;1.25;0.65;;;-4.80;1.00;;;;;;5098123;28;20428;-69
2023/01/20 01:45:11;;;;;;;1.45;1.10;;;-4.80;1.00;;;;;;5089515;28;20489;-69
2023/01/20 01:47:43;;;;;;;2.53;0.85;;;-4.80;1.00;;;;;;5072515;28;20825;-69
2023/01/20 01:50:33;;;;;;;0.95;0.35;;;-4.80;1.00;;;;;;5078659;28;20431;-69
2023/01/20 01:53:00;;;;;;;0.57;0.57;;;-4.90;1.00;;;;;;5072490;28;20999;-69
2023/01/20 01:55:32;;;;;;;0.50;0.50;;;-4.90;1.00;;;;;;5083248;28;20757;-68
2023/01/20 01:58:03;;;;;;;0.65;0.65;;;-4.80;1.00;;;;;;5090296;28;20890;-69
2023/01/20 02:00:30;;;;;;;1.60;0.80;;;-4.80;1.00;;;;;;5074460;28;20437;-69
2023/01/20 02:03:03;;;;;;;2.80;0.85;;;-4.70;1.00;;;;;;5087616;28;20430;-68
2023/01/20 02:05:30;;;;;;;0.30;0.30;;;-4.60;1.00;;;;;;5085284;28;20479;-69
2023/01/20 02:07:58;;;;;;;1.10;0.82;;;-4.70;1.00;;;;;;5092123;28;20429;-69
2023/01/20 02:10:25;;;;;;;0.57;0.57;;;-4.80;1.00;;;;;;5091287;28;20494;-68
2023/01/20 02:12:53;;;;;;;2.00;1.23;;;-4.70;1.00;;;;;;5077917;28;20435;-68
2023/01/20 02:15:26;;;;;;;1.13;1.05;;;-4.60;1.00;;;;;;5081816;28;20514;-68
2023/01/20 02:18:29;;;;;;;0.70;0.70;;;-4.60;1.00;;;;;;5097025;28;20421;-69
2023/01/20 02:21:14;;;;;;;0.80;0.80;;;-4.60;1.00;;;;;;5072542;28;20833;-68
2023/01/20 02:24:05;;;;;;;3.50;1.10;;;-4.70;1.00;;;;;;5098930;28;20438;-68
2023/01/20 02:27:03;;;;;;;1.80;0.52;;;-4.80;1.00;;;;;;5095215;28;20767;-68
2023/01/20 02:29:58;;;;;;;3.72;0.93;;;-4.60;1.00;;;;;;5097617;28;20996;-70
2023/01/20 02:32:46;;;;;;;0.85;0.75;;;-4.50;1.00;;;;;;5080896;28;20467;-69
2023/01/20 02:35:31;;;;;;;1.05;0.80;;;-4.60;1.00;;;;;;5088643;28;20431;-69
2023/01/20 02:38:18;;;;;;;2.15;1.20;;;-4.60;1.00;;;;;;5089674;28;20427;-68
2023/01/20 02:40:52;;;;;;;2.25;0.70;;;-4.60;1.00;;;;;;5089766;28;20820;-69
2023/01/20 02:43:33;;;;;;;0.93;0.93;;;-4.60;1.00;;;;;;5095394;28;20438;-68
2023/01/20 02:46:19;;;;;;;0.60;0.60;;;-4.70;1.00;;;;;;5093156;28;20513;-69
2023/01/20 02:49:15;;;;;;;3.97;1.33;;;-4.80;1.00;;;;;;5095993;28;20424;-68
2023/01/20 02:51:51;;;;;;;1.10;0.65;;;-4.90;1.00;;;;;;5072857;28;20442;-69
2023/01/20 02:54:20;;;;;;;0.93;0.88;;;-4.90;1.00;;;;;;5083137;28;20459;-69
2023/01/20 02:57:01;;;;;;;2.50;0.85;;;-4.90;1.00;;;;;;5081747;28;20425;-68
2023/01/20 02:59:35;;;;;;;1.83;0.73;;;-4.90;1.00;;;;;;5089247;28;20413;-69
2023/01/20 03:02:06;;;;;;;0.63;0.63;;;-4.90;1.00;;;;;;5084897;28;20459;-68
2023/01/20 03:04:39;;;;;;;1.15;0.70;;;-4.80;1.00;;;;;;5081557;28;20434;-68
2023/01/20 03:07:08;;;;;;;0.95;0.75;;;-4.70;1.00;;;;;;5092837;28;20438;-68
2023/01/20 03:09:44;;;;;;;0.68;0.68;;;-4.80;1.00;;;;;;5091085;28;20448;-68
2023/01/20 03:12:16;;;;;;;1.05;1.05;;;-5.00;1.00;;;;;;5098594;27;20467;-68
2023/01/20 03:14:45;;;;;;;2.45;0.95;;;-5.10;1.00;;;;;;5079833;28;20475;-68
2023/01/20 03:17:12;;;;;;;0.68;0.68;;;-5.30;1.00;;;;;;5086617;28;20894;-68
2023/01/20 03:19:39;;;;;;;3.22;0.80;;;-5.30;99.90;;;;;;5088423;28;20422;-68
2023/01/20 03:22:06;;;;;;;0.57;0.57;;;-5.30;1.00;;;;;;5086460;28;20921;-68
2023/01/20 03:24:36;;;;;;;0.80;0.80;;;-5.20;1.00;;;;;;5099473;28;20590;-70
2023/01/20 03:27:04;;;;;;;1.20;1.15;;;-5.00;1.00;;;;;;5090052;28;20432;-68
2023/01/20 03:29:31;;;;;;;0.70;0.50;;;-4.90;1.00;;;;;;5091619;28;20430;-68
2023/01/20 03:32:03;;;;;;;0.50;0.50;;;-4.70;1.00;;;;;;5088666;28;20554;-68
2023/01/20 03:34:33;;;;;;;0.63;0.63;;;-4.60;1.00;;;;;;5081080;28;20430;-68
2023/01/20 03:37:02;;;;;;;1.20;0.90;;;-4.40;1.00;;;;;;5088817;28;20813;-70
2023/01/20 03:39:30;;;;;;;0.82;0.82;;;-4.10;1.00;;;;;;5097922;28;20428;-69
2023/01/20 03:42:29;;;;;;;2.50;1.30;;;-4.00;1.00;;;;;;5096967;28;20432;-70
2023/01/20 03:45:08;;;;;;;0.68;0.68;;;-4.10;1.00;;;;;;5066820;28;20427;-69
2023/01/20 03:47:53;;;;;;;0.60;0.60;;;-4.10;1.00;;;;;;5098187;28;20894;-70
2023/01/20 03:50:42;;;;;;;1.30;1.00;;;-4.10;1.00;;;;;;5087409;28;20901;-70
2023/01/20 03:53:12;;;;;;;0.63;0.63;;;-4.10;1.00;;;;;;5098127;28;20511;-70
2023/01/20 03:55:51;;;;;;;2.30;0.98;;;-4.10;1.00;;;;;;5094565;28;20503;-70
2023/01/20 03:58:27;;;;;;;3.60;0.87;;;-4.10;1.00;;;;;;5092270;28;20419;-69
2023/01/20 04:00:56;;;;;;;0.75;0.68;;;-4.10;1.00;;;;;;5072793;28;20424;-70
2023/01/20 04:03:29;;;;;;;0.30;0.30;;;-4.20;1.00;;;;;;5078806;28;20483;-70
2023/01/20 04:05:59;;;;;;;1.42;1.33;;;-4.20;1.00;;;;;;5098689;28;21019;-70
2023/01/20 04:08:30;;;;;;;0.60;0.60;;;-4.20;1.00;;;;;;5079678;28;20430;-70
2023/01/20 04:11:00;;;;;;;0.55;0.55;;;-4.20;1.00;;;;;;5083862;28;20782;-69
2023/01/20 04:13:26;;;;;;;0.40;0.40;;;-4.30;1.00;;;;;;5086427;28;20933;-69
2023/01/20 04:15:54;;;;;;;1.55;1.08;;;-4.40;1.00;;;;;;5080181;28;20424;-70
2023/01/20 04:18:23;;;;;;;0.93;0.93;;;-4.50;1.00;;;;;;5077373;27;20423;-70
2023/01/20 04:21:01;;;;;;;1.50;1.45;;;-4.60;1.00;;;;;;5076788;28;20427;-70
2023/01/20 04:23:49;;;;;;;0.93;0.93;;;-4.60;1.00;;;;;;5095369;28;20947;-69
2023/01/20 04:26:18;;;;;;;3.00;1.17;;;-4.60;1.00;;;;;;5090466;28;20933;-70
2023/01/20 04:28:45;;;;;;;2.08;1.25;;;-4.60;1.00;;;;;;5085004;28;20516;-70
2023/01/20 04:31:13;;;;;;;3.20;1.38;;;-4.50;1.00;;;;;;5091063;28;20428;-70
2023/01/20 04:33:56;;;;;;;1.35;1.27;;;-4.50;1.00;;;;;;5083905;28;20931;-70
2023/01/20 04:36:22;;;;;;;0.73;0.73;;;-4.40;1.00;;;;;;5082503;28;20457;-70
2023/01/20 04:38:49;;;;;;;1.15;1.05;;;-4.30;1.00;;;;;;5082773;28;20438;-69
2023/01/20 04:41:16;;;;;;;1.20;1.10;;;-4.20;1.00;;;;;;5073813;28;20910;-70
2023/01/20 04:43:44;;;;;;;1.13;0.50;;;-4.20;1.00;;;;;;5100082;28;20529;-70
2023/01/20 04:46:11;;;;;;;1.50;1.38;;;-4.30;1.00;;;;;;5097708;28;20428;-69
2023/01/20 04:48:38;;;;;;;0.70;0.70;;;-4.40;1.00;;;;;;5090569;28;20497;-70
2023/01/20 04:51:06;;;;;;;1.50;0.82;;;-4.60;1.00;;;;;;5084149;28;20453;-70
2023/01/20 04:53:34;;;;;;;0.90;0.47;;;-4.50;1.00;;;;;;5088674;28;20960;-70
2023/01/20 04:56:04;;;;;;;0.60;0.60;;;-4.40;1.00;;;;;;5101259;28;20966;-69
2023/01/20 04:58:30;;;;;;;5.03;0.88;;;-4.40;1.00;;;;;;5074290;28;20667;-69
2023/01/20 05:01:01;;;;;;;0.50;0.50;;;-4.40;1.00;;;;;;5083605;28;20965;-70
2023/01/20 05:03:27;;;;;;;1.75;0.85;;;-4.30;1.00;;;;;;5086645;28;20423;-69
2023/01/20 05:05:54;;;;;;;0.60;0.60;;;-4.30;1.00;;;;;;5097257;28;20462;-70
2023/01/20 05:08:21;;;;;;;0.52;0.52;;;-4.40;1.00;;;;;;5089668;28;20426;-70
2023/01/20 05:10:48;;;;;;;0.68;0.68;;;-4.50;1.00;;;;;;5079749;28;20432;-70
2023/01/20 05:13:15;;;;;;;0.68;0.65;;;-4.50;1.00;;;;;;5084643;28;20433;-69
2023/01/20 05:15:43;;;;;;;0.70;0.70;;;-4.50;1.00;;;;;;5074800;28;20432;-69
2023/01/20 05:18:12;;;;;;;0.90;0.90;;;-4.50;1.00;;;;;;5088672;28;20421;-70
2023/01/20 05:20:38;;;;;;;0.70;0.70;;;-4.50;1.00;;;;;;5087952;28;20438;-70
2023/01/20 05:23:05;;;;;;;1.00;0.60;;;-4.50;1.00;;;;;;5078635;28;20432;-69
2023/01/20 05:25:32;;;;;;;0.80;0.70;;;-4.60;1.00;;;;;;5087719;28;20433;-70
2023/01/20 05:27:59;;;;;;;2.38;0.88;;;-4.70;1.00;;;;;;5095233;28;20789;-70
2023/01/20 05:30:26;;;;;;;0.75;0.60;;;-4.70;1.00;;;;;;5086537;28;20823;-70
2023/01/20 05:32:53;;;;;;;0.40;0.40;;;-4.80;1.00;;;;;;5089548;28;20432;-70
2023/01/20 05:35:20;;;;;;;0.68;0.68;;;-4.70;1.00;;;;;;5085361;28;20430;-69
2023/01/20 05:37:47;;;;;;;1.20;1.10;;;-4.80;1.00;;;;;;5090335;28;21257;-69
2023/01/20 05:40:14;;;;;;;1.10;1.00;;;-4.80;1.00;;;;;;5090392;28;20421;-69
2023/01/20 05:42:41;;;;;;;1.08;1.08;;;-4.70;1.00;;;;;;5088975;28;20428;-69
2023/01/20 05:45:08;;;;;;;2.88;2.28;;;-4.70;1.00;;;;;;5091944;28;20457;-70
2023/01/20 05:47:35;;;;;;;1.50;0.90;;;-4.70;1.00;;;;;;5080701;28;20919;-69
2023/01/20 05:50:03;;;;;;;0.60;0.60;;;-4.70;1.00;;;;;;5087640;28;20437;-70
2023/01/20 05:52:30;;;;;;;1.85;0.90;;;-4.70;1.00;;;;;;5088594;28;20440;-70
2023/01/20 05:54:57;;;;;;;1.50;1.30;;;-4.70;1.00;;;;;;5089503;28;20421;-67
2023/01/20 05:57:24;;;;;;;1.67;0.75;;;-4.70;1.00;;;;;;5084847;28;20429;-68
2023/01/20 05:59:51;;;;;;;0.70;0.70;;;-4.60;1.00;;;;;;5076931;28;20451;-69
2023/01/20 06:02:18;;;;;;;1.20;0.88;;;-4.50;1.00;;;;;;5059365;28;20433;-69
2023/01/20 06:04:45;;;;;;;1.10;0.50;;;-4.50;1.00;;;;;;5072550;28;20422;-69
2023/01/20 06:07:13;;;;;;;0.63;0.63;;;-4.50;1.00;;;;;;5076736;28;20459;-69
2023/01/20 06:09:41;;;;;;;0.60;0.60;;;-4.50;1.00;;;;;;5073794;28;20771;-69
2023/01/20 06:12:11;;;;;;;1.50;1.20;;;-4.50;1.00;;;;;;5074571;28;20420;-69
2023/01/20 06:14:39;;;;;;;1.20;1.10;;;-4.50;1.00;;;;;;5069873;28;20944;-68
2023/01/20 06:17:06;;;;;;;1.60;1.10;;;-4.50;1.00;;;;;;5069884;28;20456;-69
2023/01/20 06:19:33;;;;;;;1.30;1.20;;;-4.40;1.00;;;;;;5081755;28;20418;-69
2023/01/20 06:22:00;;;;;;;0.60;0.60;;;-4.30;1.00;;;;;;5077382;28;20535;-69
2023/01/20 06:24:26;;;;;;;0.60;0.60;;;-4.20;1.00;;;;;;5088511;28;20448;-69
2023/01/20 06:26:53;;;;;;;0.90;0.90;;;-4.10;1.00;;;;;;5061956;28;20428;-68
2023/01/20 06:29:20;;;;;;;0.57;0.57;;;-4.10;1.00;;;;;;5083452;28;20452;-68
2023/01/20 06:31:47;;;;;;;1.00;1.00;;;-4.00;1.00;;;;;;5071761;28;20451;-68
2023/01/20 06:34:13;;;;;;;1.65;1.55;;;-3.90;1.00;;;;;;5070680;28;20427;-68
2023/01/20 06:36:40;;;;;;;1.50;1.40;;;-3.90;1.00;;;;;;5082275;28;20423;-68
2023/01/20 06:39:07;;;;;;;4.45;2.05;;;-3.90;1.00;;;;;;5059133;28;20469;-68
2023/01/20 06:41:34;;;;;;;0.30;0.30;;;-3.90;1.00;;;;;;5076449;28;20942;-69
2023/01/20 06:44:01;;;;;;;1.52;0.73;;;-3.90;1.00;;;;;;5083178;28;20421;-69
2023/01/20 06:46:27;;;;;;;1.08;1.08;;;-3.90;1.00;;;;;;5083958;28;20526;-69
2023/01/20 06:48:59;;;;;;;2.97;2.35;;;-3.90;1.00;;;;;;5077897;28;20536;-68
2023/01/20 06:51:29;;;;;;;1.30;0.80;;;-3.90;1.00;;;;;;5075908;28;20431;-68
2023/01/20 06:53:56;;;;;;;1.30;1.20;;;-3.90;1.00;;;;;;5066640;28;20432;-68
2023/01/20 06:56:23;;;;;;;0.98;0.98;;;-3.80;1.00;;;;;;5081516;28;20437;-69
2023/01/20 06:58:50;;;;;;;0.77;0.77;;;-3.80;1.00;;;;;;5082600;28;20439;-69
2023/01/20 07:01:21;;;;;;;0.50;0.50;;;-3.80;1.00;;;;;;5071447;28;20540;-68
2023/01/20 07:03:48;;;;;;;1.00;0.70;;;-3.80;1.00;;;;;;5077855;28;22488;-68
2023/01/20 07:06:41;;;;;;;0.70;0.70;;;-3.80;1.00;;;;;;5076911;28;20428;-68
2023/01/20 07:09:11;;;;;;;1.40;0.80;;;-3.80;1.00;;;;;;5069443;28;20439;-68
2023/01/20 07:11:40;;;;;;;0.98;0.98;;;-3.70;1.00;;;;;;5081129;28;20439;-69
2023/01/20 07:14:07;;;;;;;1.50;1.23;;;-3.70;1.00;;;;;;5081599;28;20435;-68
2023/01/20 07:16:34;;;;;;;2.00;0.77;;;-3.70;1.00;;;;;;5083579;28;20505;-68
2023/01/20 07:19:01;;;;;;;7.63;0.75;;;-3.70;1.00;;;;;;5077507;28;21026;-69
2023/01/20 07:21:28;;;;;;;1.95;0.95;;;-3.60;1.00;;;;;;5080038;28;20423;-68
2023/01/20 07:23:55;;;;;;;0.90;0.90;;;-3.70;1.00;;;;;;5078459;28;20465;-69
2023/01/20 07:26:25;;;;;;;0.60;0.60;;;-3.60;1.00;;;;;;5081530;28;21003;-68
2023/01/20 07:28:54;;;;;;;0.88;0.80;;;-3.60;1.00;;;;;;5072619;28;20475;-68
2023/01/20 07:31:27;;;;;;;1.27;1.17;;;-3.60;1.00;;;;;;5079395;28;20504;-68
2023/01/20 07:33:55;;;;;;;0.50;0.50;;;-3.60;1.00;;;;;;5075115;28;20960;-68
2023/01/20 07:36:22;;;;;;;0.80;0.73;;;-3.50;1.00;;;;;;5065913;28;20433;-69
2023/01/20 07:38:50;;;;;;;0.70;0.60;;;-3.50;1.00;;;;;;5081844;28;20416;-68
2023/01/20 07:41:18;;;;;;;1.55;0.90;;;-3.50;1.00;;;;;;5074506;28;20638;-68
2023/01/20 07:43:48;;;;;;;2.10;0.57;;;-3.40;1.10;;;;;;5077793;28;20422;-68
2023/01/20 07:46:15;;;;;;;0.80;0.57;;;-3.40;8.50;;;;;;5069345;28;20522;-69
2023/01/20 07:48:42;;;;;;;1.17;1.08;;;-3.30;13.40;;;;;;5072676;28;20517;-68
2023/01/20 07:51:11;;;;;;;1.10;0.60;;;-3.30;17.90;;;;;;5083270;28;20429;-68
2023/01/20 07:53:40;;;;;;;1.55;0.63;;;-3.20;21.30;;;;;;5077596;28;20923;-68
2023/01/20 07:56:10;;;;;;;2.38;0.60;;;-3.20;27.30;;;;;;5065547;28;20435;-68
2023/01/20 07:58:38;;;;;;;0.75;0.75;;;-3.10;37.40;;;;;;5074211;28;20768;-68
2023/01/20 08:01:10;;;;;;;1.63;1.52;;;-2.90;42.00;;;;;;5072180;28;20430;-68
2023/01/20 08:03:37;;;;;;;1.00;0.70;;;-2.80;47.30;;;;;;5078295;28;20434;-68
2023/01/20 08:06:05;;;;;;;1.70;0.77;;;-2.70;59.10;;;;;;5071570;28;20515;-68
2023/01/20 08:08:33;;;;;;;1.55;0.80;;;-2.60;73.30;;;;;;5075081;28;20429;-68
2023/01/20 08:11:01;;;;;;;1.00;1.00;;;-2.40;83.30;;;;;;5075271;28;20439;-69
2023/01/20 08:13:30;;;;;;;1.90;0.90;;;-2.30;89.30;;;;;;5075107;28;20431;-68
2023/01/20 08:16:06;;;;;;;1.30;0.93;;;-2.20;93.20;;;;;;5073519;28;20435;-68
2023/01/20 08:18:36;;;;;;;1.50;1.10;;;-2.10;96.50;;;;;;5083728;28;20480;-69
2023/01/20 08:21:14;;;;;;;1.80;1.13;;;-2.10;99.90;;;;;;5079205;28;20435;-73
2023/01/20 08:23:41;;;;;;;3.53;1.50;;;-2.00;99.90;;;;;;5083466;28;20497;-68
2023/01/20 08:26:08;;;;;;;1.08;1.02;;;-1.90;95.40;;;;;;5077923;28;20428;-68
2023/01/20 08:28:35;;;;;;;0.98;0.90;;;-1.80;89.80;;;;;;5082094;28;20837;-68
2023/01/20 08:31:08;;;;;;;0.65;0.60;;;-1.80;88.00;;;;;;5072210;28;20430;-68
2023/01/20 08:33:36;;;;;;;0.55;0.55;;;-1.80;91.80;;;;;;5075116;28;20469;-69
2023/01/20 08:36:15;;;;;;;1.93;1.33;;;-1.80;87.80;;;;;;5071270;28;20508;-68
2023/01/20 08:38:42;;;;;;;1.65;1.08;;;-1.80;71.10;;;;;;5076260;28;20485;-69
2023/01/20 08:41:15;;;;;;;0.90;0.90;;;-1.80;51.00;;;;;;5085592;28;20507;-69
2023/01/20 08:43:42;;;;;;;2.17;1.20;;;-1.80;47.90;;;;;;5085576;28;20427;-68
2023/01/20 08:46:15;;;;;;;1.05;1.00;;;-1.80;32.70;;;;;;5070578;28;20433;-68
2023/01/20 08:48:43;;;;;;;1.33;0.93;;;-1.90;21.60;;;;;;5074236;28;21186;-68
2023/01/20 08:51:17;;;;;;;1.30;0.80;;;-2.00;17.30;;;;;;5072921;28;20422;-69
2023/01/20 08:53:44;;;;;;;2.53;1.13;;;-2.20;15.70;;;;;;5069194;28;20432;-69
2023/01/20 08:56:13;;;;;;;0.95;0.85;;;-2.30;15.60;;;;;;5066871;28;20429;-69
2023/01/20 08:58:40;;;;;;;1.08;1.08;;;-2.30;44.10;;;;;;5071330;28;20477;-69
2023/01/20 09:01:16;;;;;;;1.10;1.00;;;-2.00;87.30;;;;;;5074097;28;20431;-69
2023/01/20 09:03:43;;;;;;;1.13;1.13;;;-1.70;99.90;;;;;;5071527;28;20917;-69
2023/01/20 09:06:30;;;;;;;2.10;0.88;;;-1.30;99.90;;;;;;5064460;28;20431;-70
2023/01/20 09:08:57;;;;;;;2.60;1.55;;;-1.00;99.90;;;;;;5075804;28;20414;-71
2023/01/20 09:11:25;;;;;;;1.27;0.80;;;-0.80;99.90;;;;;;5078703;28;20431;-69
2023/01/20 09:13:54;;;;;;;1.17;1.08;;;-0.50;99.90;;;;;;5077484;28;20453;-69
2023/01/20 09:16:21;;;;;;;1.60;0.90;;;-0.30;99.90;;;;;;5074610;28;20429;-69
2023/01/20 09:18:48;;;;;;;2.13;0.98;;;-0.10;99.00;;;;;;5087396;28;20416;-69
2023/01/20 09:21:14;;;;;;;4.75;1.17;;;0.10;96.30;;;;;;5079791;28;20435;-69
2023/01/20 09:23:42;;;;;;;1.00;1.00;;;0.30;85.20;;;;;;5070284;28;21059;-69
2023/01/20 09:26:09;;;;;;;3.05;1.25;;;0.40;52.50;;;;;;5075044;28;20511;-69
2023/01/20 09:28:36;;;;;;;2.20;1.52;;;0.50;24.20;;;;;;5073512;28;20427;-69
2023/01/20 09:31:08;;;;;;;1.08;1.08;;;0.70;1.00;;;;;;5074717;28;20510;-69
2023/01/20 09:33:37;;;;;;;1.00;1.00;;;0.90;1.00;;;;;;5075348;28;20431;-69
2023/01/20 09:36:09;;;;;;;1.77;1.67;;;1.30;1.00;;;;;;5077173;28;20466;-70
2023/01/20 09:44:21;;;;;;;0.90;0.90;;;1.90;22.70;;;;;;5072131;28;20594;-69
2023/01/20 09:47:21;;;;;;;2.15;1.92;;;2.50;54.70;;;;;;5068663;28;20457;-69
2023/01/20 09:53:14;;;;;;;1.20;1.20;;;3.20;1.00;;;;;;5077489;28;20435;-67
2023/01/20 09:55:48;;;;;;;2.75;1.40;;;3.80;1.00;;;;;;5078890;28;20441;-67
2023/01/20 09:58:39;;;;;;;2.00;1.75;;;3.70;99.90;;;;;;5072484;28;20426;-67
2023/01/20 10:01:18;;;;;;;2.00;1.90;;;3.80;99.90;;;;;;5067361;28;20428;-67
2023/01/20 10:04:03;;;;;;;3.92;2.90;;;4.20;99.90;;;;;;5071928;28;20448;-66
2023/01/20 10:06:38;;;;;;;1.60;1.40;;;4.00;99.90;;;;;;5073959;28;20500;-68
2023/01/20 10:09:23;;;;;;;2.35;2.22;;;4.20;99.90;;;;;;5074207;28;20429;-68
2023/01/20 10:12:16;;;;;;;1.45;1.35;;;3.80;99.90;;;;;;5075438;28;20477;-67
2023/01/20 10:14:53;;;;;;;1.55;1.38;;;3.50;99.90;;;;;;5038937;28;20438;-67
2023/01/20 10:17:26;;;;;;;1.15;1.10;;;2.70;99.90;;;;;;5018953;28;20458;-67
2023/01/20 10:20:13;;;;;;;1.42;1.33;;;2.40;99.90;;;;;;5046514;28;20536;-67
2023/01/20 10:22:54;;;;;;;1.80;0.80;;;1.70;99.90;;;;;;5051533;28;21120;-67
2023/01/20 10:25:33;;;;;;;5.00;1.15;;;1.30;99.90;;;;;;5035911;28;20469;-67
2023/01/20 10:28:25;;;;;;;1.80;0.90;;;0.80;99.90;;;;;;5044239;28;20799;-67
2023/01/20 10:30:52;;;;;;;1.20;1.10;;;0.60;99.90;;;;;;5038044;28;20428;-67
2023/01/20 10:33:29;;;;;;;1.13;0.65;;;0.60;99.90;;;;;;5039603;28;20456;-67
2023/01/20 10:35:58;;;;;;;1.20;1.10;;;0.90;99.90;;;;;;5041584;28;20962;-67
2023/01/20 10:38:48;;;;;;;0.80;0.80;;;1.40;99.90;;;;;;5025481;28;20508;-67
2023/01/20 10:41:41;;;;;;;2.85;1.60;;;1.80;99.90;;;;;;5028762;28;20902;-67
2023/01/20 10:44:14;;;;;;;3.00;1.47;;;2.20;99.90;;;;;;5038822;28;20956;-67
2023/01/20 10:47:22;;;;;;;3.25;1.58;;;2.30;99.90;;;;;;5039787;28;20495;-67
2023/01/20 10:50:13;;;;;;;1.80;1.70;;;2.80;99.90;;;;;;5025534;28;20430;-68
2023/01/20 10:52:45;;;;;;;1.35;1.27;;;3.60;99.90;;;;;;5072848;28;21126;-67
2023/01/20 10:55:41;;;;;;;1.57;1.47;;;4.20;99.90;;;;;;5076188;28;20427;-68
2023/01/20 10:58:23;;;;;;;1.23;1.15;;;4.50;99.90;;;;;;5074616;28;20512;-68
2023/01/20 11:00:50;;;;;;;2.15;1.48;;;4.80;99.90;;;;;;5073938;28;20453;-68
2023/01/20 11:03:24;;;;;;;2.60;2.00;;;4.80;99.90;;;;;;5077694;28;20921;-69
2023/01/20 11:05:51;;;;;;;2.00;1.90;;;5.10;99.90;;;;;;5070032;28;21112;-68
2023/01/20 11:08:23;;;;;;;2.22;2.03;;;5.00;99.90;;;;;;5079940;28;20422;-68
2023/01/20 11:10:54;;;;;;;2.10;1.90;;;4.80;99.90;;;;;;5084751;28;20915;-68
2023/01/20 11:13:23;;;;;;;2.00;1.85;;;4.60;99.90;;;;;;5071188;28;20498;-69
2023/01/20 11:15:55;;;;;;;2.40;1.30;;;4.90;99.90;;;;;;5081161;28;20439;-69
2023/01/20 11:18:30;;;;;;;2.73;2.20;;;5.20;99.90;;;;;;5075812;28;20805;-69
2023/01/20 11:21:04;;;;;;;7.20;2.00;;;5.60;99.90;;;;;;5071130;28;20638;-69
2023/01/20 11:23:48;;;;;;;1.80;1.58;;;6.10;99.90;;;;;;5079162;28;20908;-69
2023/01/20 11:26:19;;;;;;;2.15;1.95;;;6.30;99.90;;;;;;5083808;28;20430;-69
2023/01/20 11:29:02;;;;;;;2.53;1.20;;;5.90;99.90;;;;;;5079886;28;20439;-69
2023/01/20 11:31:39;;;;;;;1.67;1.63;;;5.00;99.90;;;;;;5083548;28;20426;-69
2023/01/20 11:34:26;;;;;;;2.78;1.40;;;5.00;99.90;;;;;;5102863;28;20459;-69
2023/01/20 11:37:18;;;;;;;1.30;1.27;;;5.10;99.90;;;;;;5080253;28;20434;-69
2023/01/20 11:39:48;;;;;;;1.83;0.88;;;4.80;99.90;;;;;;5092867;28;20435;-70
2023/01/20 11:42:19;;;;;;;1.35;1.27;;;4.60;99.90;;;;;;5088336;28;20420;-70
2023/01/20 11:44:51;;;;;;;1.60;1.10;;;3.90;99.90;;;;;;5088318;28;20424;-70
2023/01/20 11:47:32;;;;;;;1.50;1.40;;;3.40;99.90;;;;;;5099092;28;20895;-69
2023/01/20 11:50:08;;;;;;;0.95;0.90;;;3.10;99.90;;;;;;5085540;28;20438;-70
2023/01/20 11:52:41;;;;;;;1.40;0.70;;;3.30;99.90;;;;;;5069465;28;20432;-69
2023/01/20 11:55:22;;;;;;;3.60;1.67;;;3.20;99.90;;;;;;5080403;28;20439;-70
2023/01/20 11:57:51;;;;;;;2.90;1.17;;;3.20;99.90;;;;;;5089179;28;20509;-70
2023/01/20 12:00:18;;;;;;;1.58;1.48;;;3.00;99.90;;;;;;5076859;28;20427;-70
2023/01/20 12:03:09;;;;;;;2.37;1.37;;;3.00;99.90;;;;;;5083838;28;20499;-70
2023/01/20 12:05:47;;;;;;;1.50;1.40;;;3.10;99.90;;;;;;5085471;28;20454;-71
2023/01/20 12:08:48;;;;;;;2.78;1.02;;;3.20;99.90;;;;;;5061618;28;20445;-71
2023/01/20 12:11:27;;;;;;;0.50;0.50;;;3.00;99.90;;;;;;5076282;28;20472;-71
2023/01/20 12:14:22;;;;;;;1.08;1.08;;;3.00;99.90;;;;;;5083097;28;20432;-70
2023/01/20 12:16:59;;;;;;;0.90;0.90;;;3.10;99.90;;;;;;5089820;28;20906;-70
2023/01/20 12:19:39;;;;;;;1.05;0.90;;;3.10;99.90;;;;;;5081566;28;20967;-70
2023/01/20 12:22:14;;;;;;;2.42;1.40;;;3.00;99.90;;;;;;5081942;28;20431;-71
2023/01/20 12:25:07;;;;;;;1.48;1.38;;;3.60;99.90;;;;;;5077237;28;20430;-70
2023/01/20 12:27:45;;;;;;;1.00;0.88;;;4.30;99.90;;;;;;5078867;28;20431;-71
2023/01/20 12:30:24;;;;;;;1.13;1.10;;;5.00;99.90;;;;;;5061210;28;20431;-71
2023/01/20 12:32:51;;;;;;;1.15;1.15;;;5.10;99.90;;;;;;5079500;28;20457;-71
2023/01/20 12:35:21;;;;;;;3.00;1.23;;;5.10;99.90;;;;;;5077097;28;20430;-71
2023/01/20 12:38:01;;;;;;;2.05;0.95;;;4.90;99.90;;;;;;5078827;28;20476;-71
2023/01/20 12:40:40;;;;;;;1.13;1.10;;;4.50;99.90;;;;;;5084969;28;20440;-70
2023/01/20 12:43:38;;;;;;;0.57;0.47;;;4.10;99.90;;;;;;5078218;28;20875;-71
2023/01/20 12:46:19;;;;;;;0.98;0.98;;;3.60;99.90;;;;;;5077870;28;20428;-69
2023/01/20 12:49:09;;;;;;;0.90;0.90;;;3.60;99.90;;;;;;5067485;28;20601;-69
2023/01/20 12:51:42;;;;;;;1.15;1.15;;;4.00;99.90;;;;;;5067268;28;20520;-70
2023/01/20 12:54:17;;;;;;;0.90;0.90;;;4.10;99.90;;;;;;5064236;28;20431;-71
2023/01/20 12:57:07;;;;;;;0.80;0.80;;;4.10;99.90;;;;;;5066344;28;20434;-70
2023/01/20 12:59:49;;;;;;;2.80;1.03;;;4.30;99.90;;;;;;5065708;28;20610;-71
2023/01/20 13:02:17;;;;;;;0.45;0.45;;;4.30;99.90;;;;;;5070909;28;20434;-71
2023/01/20 13:05:27;;;;;;;2.05;0.95;;;4.30;99.90;;;;;;5065715;28;20442;-71
2023/01/20 13:08:08;;;;;;;0.80;0.80;;;4.00;99.90;;;;;;5068171;28;21011;-71
2023/01/20 13:11:01;;;;;;;1.17;1.08;;;4.00;99.90;;;;;;5068028;28;20442;-69
2023/01/20 13:14:10;;;;;;;1.13;0.98;;;3.90;99.90;;;;;;5068191;28;20427;-71
2023/01/20 13:16:52;;;;;;;1.30;0.82;;;3.50;99.90;;;;;;5072767;28;20433;-71
2023/01/20 13:19:36;;;;;;;6.70;0.90;;;3.40;99.90;;;;;;5066635;28;21029;-71
2023/01/20 13:22:20;;;;;;;1.33;1.23;;;3.20;99.90;;;;;;5078252;28;20469;-71
2023/01/20 13:24:53;;;;;;;0.88;0.63;;;3.00;99.90;;;;;;5082806;28;20467;-71
2023/01/20 13:27:32;;;;;;;1.35;1.17;;;2.80;99.90;;;;;;5081136;28;20450;-70
2023/01/20 13:30:05;;;;;;;0.57;0.57;;;2.60;99.90;;;;;;5073355;28;20425;-71
2023/01/20 13:32:44;;;;;;;0.63;0.63;;;2.50;99.90;;;;;;5093858;28;20510;-71
2023/01/20 13:35:16;;;;;;;1.73;0.80;;;2.40;99.90;;;;;;5083603;28;20424;-71